PWSweather.com
Personal Weather Stations
Station Observations
COONRAPIDS
Minneapolis, MN 55433

Minneapolis, MN 55433

Lat: 45.187721, Lon: -93.36828

Elevation: 898

Station Type: Davis Vantage Pro 2

Latest ConditionsUpdated 7:20:00 PM CDT Friday, May 24, 2019
Currently Today's Max Today's Min Today's Average
Temperature 70.7°F21.5°C 71.4°F21.9°C 49.2°F9.6°C 55.7°F13.2°C
Dew Point 57.9°F14.4°C 60.4°F15.8°C 45.1°F7.3°C 50.3°F10.2°C
Winds Calm Calm 2.3 mph -3.7 kmh - - 0.2 mph 0.3 kmh
Wind Gusts -- 4.6 mph7.4 kmh - -
Humidity 64% 87% 63% 83%
Pressure 29.70 in1005.8 mb 30.08 in1018.6 mb 29.70 in1005.8 mb -
Precipitation - 0.01 in0.3 mm - -
Hour Temp Dew Point Humidity Winds Wind Gusts Pressure Precip Precip Rate Daily Precip Total
07:20 PM 70.7°F21.5°C 57.9°F14.4°C 64% Calm Calm -- 29.70 in1005.8 mb - 0.00 in0.0 mm 0.01 in0.3 mm
07:10 PM 70.9°F21.6°C 58.1°F14.5°C 64% Calm Calm -- 29.70 in1005.8 mb - 0.00 in0.0 mm 0.01 in0.3 mm
07:00 PM 71.1°F21.7°C 57.9°F14.4°C 63% 2.3 mph SW3.7 kmh SW 3.5 mph5.6 kmh 29.70 in1005.8 mb - 0.00 in0.0 mm 0.01 in0.3 mm
06:50 PM 71.4°F21.9°C 58.6°F14.8°C 64% 1.2 mph SW1.9 kmh SW -- 29.71 in1006.1 mb - 0.00 in0.0 mm 0.01 in0.3 mm
06:40 PM 71.2°F21.8°C 58.0°F14.4°C 63% Calm Calm 2.3 mph3.7 kmh 29.71 in1006.1 mb - 0.00 in0.0 mm 0.01 in0.3 mm
06:30 PM 70.7°F21.5°C 57.9°F14.4°C 64% Calm Calm 1.2 mph1.9 kmh 29.71 in1006.1 mb - 0.00 in0.0 mm 0.01 in0.3 mm
06:20 PM 70.3°F21.3°C 58.4°F14.7°C 66% Calm Calm 1.2 mph1.9 kmh 29.71 in1006.1 mb - 0.00 in0.0 mm 0.01 in0.3 mm
06:10 PM 70.2°F21.2°C 58.3°F14.6°C 66% 1.2 mph S1.9 kmh S 4.6 mph7.4 kmh 29.72 in1006.4 mb - 0.00 in0.0 mm 0.01 in0.3 mm
06:00 PM 70.4°F21.3°C 58.9°F14.9°C 67% Calm Calm 3.5 mph5.6 kmh 29.72 in1006.4 mb - 0.00 in0.0 mm 0.01 in0.3 mm
05:50 PM 70.0°F21.1°C 59.0°F15.0°C 68% 1.2 mph SSW1.9 kmh SSW 2.3 mph3.7 kmh 29.72 in1006.4 mb - 0.00 in0.0 mm 0.01 in0.3 mm
05:40 PM 69.4°F20.8°C 59.6°F15.3°C 71% Calm Calm -- 29.72 in1006.4 mb - 0.00 in0.0 mm 0.01 in0.3 mm
05:30 PM 69.3°F20.7°C 60.3°F15.7°C 73% Calm Calm -- 29.72 in1006.4 mb - 0.00 in0.0 mm 0.01 in0.3 mm
05:20 PM 68.6°F20.3°C 60.4°F15.8°C 75% Calm Calm -- 29.73 in1006.8 mb - 0.00 in0.0 mm 0.01 in0.3 mm
05:10 PM 67.8°F19.9°C 59.9°F15.5°C 76% Calm Calm -- 29.73 in1006.8 mb - 0.00 in0.0 mm 0.01 in0.3 mm
05:00 PM 68.1°F20.1°C 59.9°F15.5°C 75% Calm Calm 1.2 mph1.9 kmh 29.73 in1006.8 mb - 0.00 in0.0 mm 0.01 in0.3 mm
04:50 PM 68.1°F20.1°C 60.3°F15.7°C 76% Calm Calm -- 29.74 in1007.1 mb - 0.00 in0.0 mm 0.01 in0.3 mm
04:40 PM 65.8°F18.8°C 59.8°F15.4°C 81% Calm Calm -- 29.74 in1007.1 mb - 0.00 in0.0 mm 0.01 in0.3 mm
04:30 PM 64.0°F17.8°C 58.7°F14.8°C 83% Calm Calm -- 29.75 in1007.5 mb - 0.00 in0.0 mm 0.01 in0.3 mm
04:20 PM 62.9°F17.2°C 58.0°F14.4°C 84% Calm Calm -- 29.75 in1007.5 mb - 0.00 in0.0 mm 0.01 in0.3 mm
04:10 PM 62.0°F16.7°C 57.1°F13.9°C 84% Calm Calm -- 29.75 in1007.5 mb - 0.00 in0.0 mm 0.01 in0.3 mm
04:00 PM 61.4°F16.3°C 56.8°F13.8°C 85% Calm Calm -- 29.75 in1007.5 mb - 0.00 in0.0 mm 0.01 in0.3 mm
03:50 PM 60.8°F16.0°C 56.3°F13.5°C 85% Calm Calm -- 29.76 in1007.8 mb - 0.00 in0.0 mm 0.01 in0.3 mm
03:40 PM 60.5°F15.8°C 56.3°F13.5°C 86% Calm Calm -- 29.76 in1007.8 mb - 0.00 in0.0 mm 0.01 in0.3 mm
03:30 PM 60.1°F15.6°C 55.9°F13.3°C 86% Calm Calm -- 29.76 in1007.8 mb - 0.00 in0.0 mm 0.01 in0.3 mm
03:20 PM 59.8°F15.4°C 55.9°F13.3°C 87% Calm Calm -- 29.76 in1007.8 mb - 0.00 in0.0 mm 0.01 in0.3 mm
03:10 PM 59.2°F15.1°C 55.3°F12.9°C 87% Calm Calm -- 29.76 in1007.8 mb - 0.00 in0.0 mm 0.01 in0.3 mm
03:00 PM 58.6°F14.8°C 54.7°F12.6°C 87% Calm Calm -- 29.76 in1007.8 mb - 0.00 in0.0 mm 0.01 in0.3 mm
02:50 PM 58.3°F14.6°C 54.5°F12.5°C 87% Calm Calm -- 29.77 in1008.1 mb - 0.00 in0.0 mm 0.01 in0.3 mm
02:40 PM 58.2°F14.6°C 54.3°F12.4°C 87% Calm Calm -- 29.77 in1008.1 mb - 0.00 in0.0 mm 0.01 in0.3 mm
02:30 PM 58.0°F14.4°C 53.8°F12.1°C 86% Calm Calm -- 29.77 in1008.1 mb - 0.00 in0.0 mm 0.01 in0.3 mm
02:20 PM 57.8°F14.3°C 53.6°F12.0°C 86% Calm Calm -- 29.77 in1008.1 mb - 0.00 in0.0 mm 0.01 in0.3 mm
02:10 PM 57.6°F14.2°C 53.4°F11.9°C 86% Calm Calm -- 29.78 in1008.5 mb - 0.00 in0.0 mm 0.01 in0.3 mm
02:00 PM 57.6°F14.2°C 53.1°F11.7°C 85% Calm Calm -- 29.78 in1008.5 mb - 0.00 in0.0 mm 0.01 in0.3 mm
01:50 PM 57.7°F14.3°C 53.2°F11.8°C 85% Calm Calm -- 29.79 in1008.8 mb - 0.00 in0.0 mm 0.01 in0.3 mm
01:40 PM 57.5°F14.2°C 53.1°F11.7°C 85% Calm Calm -- 29.79 in1008.8 mb - 0.00 in0.0 mm 0.01 in0.3 mm
01:30 PM 57.1°F13.9°C 52.3°F11.3°C 84% Calm Calm 1.2 mph1.9 kmh 29.80 in1009.1 mb - 0.00 in0.0 mm 0.01 in0.3 mm
01:20 PM 56.8°F13.8°C 52.0°F11.1°C 84% Calm Calm 1.2 mph1.9 kmh 29.80 in1009.1 mb - 0.00 in0.0 mm 0.01 in0.3 mm
01:10 PM 56.7°F13.7°C 52.2°F11.2°C 85% Calm Calm -- 29.81 in1009.5 mb - 0.00 in0.0 mm 0.01 in0.3 mm
01:00 PM 56.4°F13.6°C 51.9°F11.1°C 85% Calm Calm -- 29.81 in1009.5 mb - 0.00 in0.0 mm 0.01 in0.3 mm
12:50 PM 56.1°F13.4°C 51.7°F10.9°C 85% Calm Calm -- 29.82 in1009.8 mb - 0.00 in0.0 mm 0.01 in0.3 mm
12:40 PM 55.7°F13.2°C 51.3°F10.7°C 85% Calm Calm -- 29.82 in1009.8 mb - 0.00 in0.0 mm 0.01 in0.3 mm
12:30 PM 55.4°F13.0°C 50.9°F10.5°C 85% 1.2 mph E1.9 kmh E 3.5 mph5.6 kmh 29.83 in1010.2 mb - 0.00 in0.0 mm 0.01 in0.3 mm
12:20 PM 55.1°F12.8°C 51.0°F10.6°C 86% Calm Calm 2.3 mph3.7 kmh 29.84 in1010.5 mb - 0.00 in0.0 mm 0.01 in0.3 mm
12:10 PM 54.8°F12.7°C 50.7°F10.4°C 86% 1.2 mph SE1.9 kmh SE 3.5 mph5.6 kmh 29.84 in1010.5 mb - 0.00 in0.0 mm 0.01 in0.3 mm
12:00 PM 54.6°F12.6°C 50.5°F10.3°C 86% Calm Calm -- 29.85 in1010.8 mb - 0.00 in0.0 mm 0.01 in0.3 mm
11:50 AM 54.4°F12.4°C 50.3°F10.2°C 86% Calm Calm -- 29.84 in1010.5 mb - 0.00 in0.0 mm 0.01 in0.3 mm
11:40 AM 54.2°F12.3°C 50.1°F10.1°C 86% 2.3 mph E3.7 kmh E 4.6 mph7.4 kmh 29.85 in1010.8 mb - 0.00 in0.0 mm 0.01 in0.3 mm
11:30 AM 54.0°F12.2°C 50.2°F10.1°C 87% Calm Calm -- 29.86 in1011.2 mb - 0.00 in0.0 mm 0.01 in0.3 mm
11:20 AM 53.6°F12.0°C 49.9°F9.9°C 87% Calm Calm -- 29.86 in1011.2 mb - 0.00 in0.0 mm 0.01 in0.3 mm
11:10 AM 53.3°F11.8°C 49.6°F9.8°C 87% Calm Calm 2.3 mph3.7 kmh 29.86 in1011.2 mb - 0.00 in0.0 mm 0.01 in0.3 mm
11:00 AM 53.2°F11.8°C 49.4°F9.7°C 87% Calm Calm 2.3 mph3.7 kmh 29.87 in1011.5 mb - 0.00 in0.0 mm 0.01 in0.3 mm
10:50 AM 53.0°F11.7°C 49.2°F9.6°C 87% 1.2 mph ESE1.9 kmh ESE 1.2 mph1.9 kmh 29.87 in1011.5 mb - 0.00 in0.0 mm 0.01 in0.3 mm
10:40 AM 52.8°F11.6°C 49.0°F9.4°C 87% Calm Calm -- 29.87 in1011.5 mb - 0.00 in0.0 mm 0.01 in0.3 mm
10:30 AM 52.6°F11.4°C 48.8°F9.3°C 87% 1.2 mph ESE1.9 kmh ESE 1.2 mph1.9 kmh 29.87 in1011.5 mb - 0.00 in0.0 mm 0.01 in0.3 mm
10:20 AM 52.5°F11.4°C 48.7°F9.3°C 87% Calm Calm -- 29.87 in1011.5 mb - 0.01 in0.3 mm 0.01 in0.3 mm
10:10 AM 52.4°F11.3°C 48.6°F9.2°C 87% Calm Calm -- 29.88 in1011.9 mb - 0.01 in0.3 mm 0.01 in0.3 mm
10:00 AM 52.3°F11.3°C 48.5°F9.2°C 87% Calm Calm -- 29.87 in1011.5 mb - 0.01 in0.3 mm 0.01 in0.3 mm
09:50 AM 52.3°F11.3°C 48.5°F9.2°C 87% 1.2 mph E1.9 kmh E 1.2 mph1.9 kmh 29.87 in1011.5 mb - 0.01 in0.3 mm 0.01 in0.3 mm
09:40 AM 52.3°F11.3°C 48.5°F9.2°C 87% Calm Calm -- 29.87 in1011.5 mb - 0.01 in0.3 mm 0.01 in0.3 mm
09:30 AM 52.5°F11.4°C 48.4°F9.1°C 86% 1.2 mph E1.9 kmh E 3.5 mph5.6 kmh 29.88 in1011.9 mb - 0.01 in0.3 mm 0.01 in0.3 mm
09:20 AM 52.7°F11.5°C 48.0°F8.9°C 84% Calm Calm -- 29.91 in1012.9 mb - 0.00 in0.0 mm 0.00 in0.0 mm
09:10 AM 53.1°F11.7°C 48.1°F8.9°C 83% Calm Calm 1.2 mph1.9 kmh 29.92 in1013.2 mb - 0.00 in0.0 mm 0.00 in0.0 mm
09:00 AM 53.1°F11.7°C 47.7°F8.7°C 82% Calm Calm -- 29.92 in1013.2 mb - 0.00 in0.0 mm 0.00 in0.0 mm
08:50 AM 53.0°F11.7°C 47.7°F8.7°C 82% Calm Calm -- 29.93 in1013.5 mb - 0.00 in0.0 mm 0.00 in0.0 mm
08:40 AM 52.9°F11.6°C 47.6°F8.7°C 82% Calm Calm -- 29.94 in1013.9 mb - 0.00 in0.0 mm 0.00 in0.0 mm
08:30 AM 52.9°F11.6°C 47.6°F8.7°C 82% 2.3 mph E3.7 kmh E 3.5 mph5.6 kmh 29.94 in1013.9 mb - 0.00 in0.0 mm 0.00 in0.0 mm
08:20 AM 52.6°F11.4°C 47.6°F8.7°C 83% 1.2 mph E1.9 kmh E 3.5 mph5.6 kmh 29.94 in1013.9 mb - 0.00 in0.0 mm 0.00 in0.0 mm
08:10 AM 52.5°F11.4°C 47.5°F8.6°C 83% 1.2 mph E1.9 kmh E 1.2 mph1.9 kmh 29.95 in1014.2 mb - 0.00 in0.0 mm 0.00 in0.0 mm
08:00 AM 52.3°F11.3°C 47.3°F8.5°C 83% Calm Calm -- 29.95 in1014.2 mb - 0.00 in0.0 mm 0.00 in0.0 mm
07:50 AM 52.2°F11.2°C 47.2°F8.4°C 83% Calm Calm -- 29.95 in1014.2 mb - 0.00 in0.0 mm 0.00 in0.0 mm
07:40 AM 52.2°F11.2°C 47.2°F8.4°C 83% Calm Calm -- 29.97 in1014.9 mb - 0.00 in0.0 mm 0.00 in0.0 mm
07:30 AM 52.2°F11.2°C 47.2°F8.4°C 83% Calm Calm -- 29.97 in1014.9 mb - 0.00 in0.0 mm 0.00 in0.0 mm
07:20 AM 52.1°F11.2°C 47.1°F8.4°C 83% Calm Calm -- 29.98 in1015.2 mb - 0.00 in0.0 mm 0.00 in0.0 mm
07:10 AM 52.0°F11.1°C 47.0°F8.3°C 83% Calm Calm -- 29.98 in1015.2 mb - 0.00 in0.0 mm 0.00 in0.0 mm
07:00 AM 51.9°F11.1°C 46.9°F8.3°C 83% Calm Calm -- 29.98 in1015.2 mb - 0.00 in0.0 mm 0.00 in0.0 mm
06:50 AM 51.8°F11.0°C 47.1°F8.4°C 84% Calm Calm -- 29.97 in1014.9 mb - 0.00 in0.0 mm 0.00 in0.0 mm
06:40 AM 51.6°F10.9°C 46.9°F8.3°C 84% 1.2 mph W1.9 kmh W 2.3 mph3.7 kmh 29.97 in1014.9 mb - 0.00 in0.0 mm 0.00 in0.0 mm
06:30 AM 51.5°F10.8°C 46.8°F8.2°C 84% Calm Calm -- 29.98 in1015.2 mb - 0.00 in0.0 mm 0.00 in0.0 mm
06:20 AM 51.5°F10.8°C 46.8°F8.2°C 84% Calm Calm -- 29.98 in1015.2 mb - 0.00 in0.0 mm 0.00 in0.0 mm
06:10 AM 51.5°F10.8°C 46.5°F8.1°C 83% Calm Calm -- 29.99 in1015.6 mb - 0.00 in0.0 mm 0.00 in0.0 mm
06:00 AM 51.4°F10.8°C 46.4°F8.0°C 83% Calm Calm -- 29.99 in1015.6 mb - 0.00 in0.0 mm 0.00 in0.0 mm
05:50 AM 51.4°F10.8°C 46.7°F8.2°C 84% Calm Calm -- 29.99 in1015.6 mb - 0.00 in0.0 mm 0.00 in0.0 mm
05:40 AM 51.2°F10.7°C 46.5°F8.1°C 84% Calm Calm -- 29.98 in1015.2 mb - 0.00 in0.0 mm 0.00 in0.0 mm
05:30 AM 51.1°F10.6°C 46.4°F8.0°C 84% Calm Calm -- 29.98 in1015.2 mb - 0.00 in0.0 mm 0.00 in0.0 mm
05:20 AM 51.1°F10.6°C 46.4°F8.0°C 84% Calm Calm -- 29.99 in1015.6 mb - 0.00 in0.0 mm 0.00 in0.0 mm
05:10 AM 51.1°F10.6°C 46.4°F8.0°C 84% Calm Calm -- 30.00 in1015.9 mb - 0.00 in0.0 mm 0.00 in0.0 mm
05:00 AM 51.0°F10.6°C 46.3°F7.9°C 84% Calm Calm 1.2 mph1.9 kmh 30.01 in1016.3 mb - 0.00 in0.0 mm 0.00 in0.0 mm
04:50 AM 51.0°F10.6°C 46.3°F7.9°C 84% Calm Calm -- 30.01 in1016.3 mb - 0.00 in0.0 mm 0.00 in0.0 mm
04:40 AM 51.0°F10.6°C 46.3°F7.9°C 84% Calm Calm -- 30.01 in1016.3 mb - 0.00 in0.0 mm 0.00 in0.0 mm
04:30 AM 50.9°F10.5°C 46.2°F7.9°C 84% Calm Calm -- 30.02 in1016.6 mb - 0.00 in0.0 mm 0.00 in0.0 mm
04:20 AM 50.7°F10.4°C 46.4°F8.0°C 85% Calm Calm -- 30.04 in1017.3 mb - 0.00 in0.0 mm 0.00 in0.0 mm
04:10 AM 50.6°F10.3°C 46.3°F7.9°C 85% Calm Calm -- 30.06 in1017.9 mb - 0.00 in0.0 mm 0.00 in0.0 mm
04:00 AM 50.5°F10.3°C 45.8°F7.7°C 84% Calm Calm -- 30.05 in1017.6 mb - 0.00 in0.0 mm 0.00 in0.0 mm
03:50 AM 50.5°F10.3°C 45.8°F7.7°C 84% Calm Calm -- 30.06 in1017.9 mb - 0.00 in0.0 mm 0.00 in0.0 mm
03:40 AM 50.3°F10.2°C 45.6°F7.6°C 84% Calm Calm -- 30.06 in1017.9 mb - 0.00 in0.0 mm 0.00 in0.0 mm
03:30 AM 50.3°F10.2°C 45.6°F7.6°C 84% Calm Calm -- 30.06 in1017.9 mb - 0.00 in0.0 mm 0.00 in0.0 mm
03:20 AM 50.4°F10.2°C 45.7°F7.6°C 84% Calm Calm -- 30.06 in1017.9 mb - 0.00 in0.0 mm 0.00 in0.0 mm
03:10 AM 50.6°F10.3°C 45.9°F7.7°C 84% Calm Calm -- 30.05 in1017.6 mb - 0.00 in0.0 mm 0.00 in0.0 mm
03:00 AM 50.8°F10.4°C 45.8°F7.7°C 83% Calm Calm -- 30.05 in1017.6 mb - 0.00 in0.0 mm 0.00 in0.0 mm
02:50 AM 50.9°F10.5°C 46.2°F7.9°C 84% Calm Calm -- 30.04 in1017.3 mb - 0.00 in0.0 mm 0.00 in0.0 mm
02:40 AM 50.6°F10.3°C 45.9°F7.7°C 84% Calm Calm -- 30.04 in1017.3 mb - 0.00 in0.0 mm 0.00 in0.0 mm
02:30 AM 50.2°F10.1°C 46.2°F7.9°C 86% Calm Calm -- 30.03 in1016.9 mb - 0.00 in0.0 mm 0.00 in0.0 mm
02:20 AM 49.7°F9.8°C 45.7°F7.6°C 86% Calm Calm 1.2 mph1.9 kmh 30.04 in1017.3 mb - 0.00 in0.0 mm 0.00 in0.0 mm
02:10 AM 49.4°F9.7°C 45.4°F7.4°C 86% Calm Calm -- 30.05 in1017.6 mb - 0.00 in0.0 mm 0.00 in0.0 mm
02:00 AM 49.3°F9.6°C 45.3°F7.4°C 86% Calm Calm -- 30.06 in1017.9 mb - 0.00 in0.0 mm 0.00 in0.0 mm
01:50 AM 49.2°F9.6°C 45.2°F7.3°C 86% Calm Calm -- 30.06 in1017.9 mb - 0.00 in0.0 mm 0.00 in0.0 mm
01:40 AM 49.3°F9.6°C 45.3°F7.4°C 86% Calm Calm -- 30.06 in1017.9 mb - 0.00 in0.0 mm 0.00 in0.0 mm
01:30 AM 49.2°F9.6°C 45.2°F7.3°C 86% Calm Calm -- 30.06 in1017.9 mb - 0.00 in0.0 mm 0.00 in0.0 mm
01:20 AM 49.3°F9.6°C 45.3°F7.4°C 86% Calm Calm -- 30.05 in1017.6 mb - 0.00 in0.0 mm 0.00 in0.0 mm
01:10 AM 49.4°F9.7°C 45.1°F7.3°C 85% Calm Calm -- 30.05 in1017.6 mb - 0.00 in0.0 mm 0.00 in0.0 mm
01:00 AM 49.4°F9.7°C 45.1°F7.3°C 85% Calm Calm -- 30.04 in1017.3 mb - 0.00 in0.0 mm 0.00 in0.0 mm
12:50 AM 49.6°F9.8°C 45.2°F7.3°C 85% Calm Calm -- 30.05 in1017.6 mb - 0.00 in0.0 mm 0.00 in0.0 mm
12:40 AM 49.7°F9.8°C 45.4°F7.4°C 85% Calm Calm -- 30.06 in1017.9 mb - 0.00 in0.0 mm 0.00 in0.0 mm
12:30 AM 49.9°F9.9°C 45.6°F7.6°C 85% Calm Calm -- 30.07 in1018.3 mb - 0.00 in0.0 mm 0.00 in0.0 mm
12:20 AM 49.9°F9.9°C 45.3°F7.4°C 84% Calm Calm -- 30.08 in1018.6 mb - 0.00 in0.0 mm 0.00 in0.0 mm
12:10 AM 50.1°F10.1°C 45.4°F7.4°C 84% Calm Calm -- 30.07 in1018.3 mb - 0.00 in0.0 mm 0.00 in0.0 mm
12:00 AM 50.2°F10.1°C 45.6°F7.6°C 84% Calm Calm -- 30.07 in1018.3 mb - 0.00 in0.0 mm 0.00 in0.0 mm